sensor_id;sensor_type;location;lat;lon;timestamp;pressure;altitude;pressure_sealevel;temperature;humidity
45937;BME280;31649;46.510;6.498;2022-07-29T00:02:28;97025.50;;;23.26;37.94
45937;BME280;31649;46.510;6.498;2022-07-29T00:05:42;97010.97;;;23.29;37.73
45937;BME280;31649;46.510;6.498;2022-07-29T00:08:53;97007.72;;;23.27;37.41
45937;BME280;31649;46.510;6.498;2022-07-29T00:12:03;97011.78;;;23.16;37.13
45937;BME280;31649;46.510;6.498;2022-07-29T00:15:14;97010.75;;;23.17;38.09
45937;BME280;31649;46.510;6.498;2022-07-29T00:18:24;97011.78;;;23.16;38.71
45937;BME280;31649;46.510;6.498;2022-07-29T00:21:35;97010.16;;;23.15;39.09
45937;BME280;31649;46.510;6.498;2022-07-29T00:24:44;97017.91;;;23.23;38.40
45937;BME280;31649;46.510;6.498;2022-07-29T00:27:56;97014.66;;;23.28;38.34
45937;BME280;31649;46.510;6.498;2022-07-29T00:31:05;97022.00;;;23.19;38.77
45937;BME280;31649;46.510;6.498;2022-07-29T00:34:18;97015.88;;;23.25;37.99
45937;BME280;31649;46.510;6.498;2022-07-29T00:37:33;97017.91;;;23.16;37.57
45937;BME280;31649;46.510;6.498;2022-07-29T00:40:46;97019.94;;;23.07;37.31
45937;BME280;31649;46.510;6.498;2022-07-29T00:43:58;97017.91;;;23.10;37.21
45937;BME280;31649;46.510;6.498;2022-07-29T00:47:08;97011.38;;;23.05;38.18
45937;BME280;31649;46.510;6.498;2022-07-29T00:50:21;97017.66;;;22.98;39.49
45937;BME280;31649;46.510;6.498;2022-07-29T00:53:33;97021.91;;;22.92;41.41
45937;BME280;31649;46.510;6.498;2022-07-29T00:56:46;97012.34;;;22.98;41.77
45937;BME280;31649;46.510;6.498;2022-07-29T00:59:56;97020.75;;;23.01;42.59
45937;BME280;31649;46.510;6.498;2022-07-29T01:03:07;97014.81;;;22.99;42.88
45937;BME280;31649;46.510;6.498;2022-07-29T01:06:21;97010.91;;;22.95;42.79
45937;BME280;31649;46.510;6.498;2022-07-29T01:09:27;97015.78;;;22.91;43.59
45937;BME280;31649;46.510;6.498;2022-07-29T01:12:34;97006.41;;;22.89;43.70
45937;BME280;31649;46.510;6.498;2022-07-29T01:15:49;97014.16;;;22.90;44.37
45937;BME280;31649;46.510;6.498;2022-07-29T01:19:13;97014.38;;;22.89;45.41
45937;BME280;31649;46.510;6.498;2022-07-29T01:26:20;97019.59;;;22.75;45.96
45937;BME280;31649;46.510;6.498;2022-07-29T01:32:34;97008.59;;;22.71;46.86
45937;BME280;31649;46.510;6.498;2022-07-29T01:35:45;97016.91;;;22.68;47.69
45937;BME280;31649;46.510;6.498;2022-07-29T01:39:01;97009.00;;;22.75;48.00
45937;BME280;31649;46.510;6.498;2022-07-29T01:45:38;97008.47;;;22.51;49.91
45937;BME280;31649;46.510;6.498;2022-07-29T01:55:42;97017.31;;;22.65;50.71
45937;BME280;31649;46.510;6.498;2022-07-29T01:58:53;97011.13;;;22.51;51.92
45937;BME280;31649;46.510;6.498;2022-07-29T02:02:06;97014.19;;;22.55;52.44
45937;BME280;31649;46.510;6.498;2022-07-29T02:05:17;97020.47;;;22.47;52.92
45937;BME280;31649;46.510;6.498;2022-07-29T02:08:33;97020.66;;;22.45;53.33
45937;BME280;31649;46.510;6.498;2022-07-29T02:11:31;97023.16;;;22.54;53.26
45937;BME280;31649;46.510;6.498;2022-07-29T02:14:50;97025.00;;;22.60;53.83
45937;BME280;31649;46.510;6.498;2022-07-29T02:18:07;97020.94;;;22.64;53.81
45937;BME280;31649;46.510;6.498;2022-07-29T02:21:19;97023.28;;;22.74;53.47
45937;BME280;31649;46.510;6.498;2022-07-29T02:24:34;97010.13;;;22.59;54.31
45937;BME280;31649;46.510;6.498;2022-07-29T02:27:49;97013.16;;;22.56;54.61
45937;BME280;31649;46.510;6.498;2022-07-29T02:31:00;97012.13;;;22.50;55.13
45937;BME280;31649;46.510;6.498;2022-07-29T02:34:14;97014.25;;;22.33;56.10
45937;BME280;31649;46.510;6.498;2022-07-29T02:37:28;97015.72;;;22.35;56.27
45937;BME280;31649;46.510;6.498;2022-07-29T02:40:43;97021.47;;;22.46;56.19
45937;BME280;31649;46.510;6.498;2022-07-29T02:43:58;97021.69;;;22.44;56.70
45937;BME280;31649;46.510;6.498;2022-07-29T02:50:42;97026.25;;;22.64;56.25
45937;BME280;31649;46.510;6.498;2022-07-29T02:53:57;97022.31;;;22.46;56.54
45937;BME280;31649;46.510;6.498;2022-07-29T02:57:20;97024.28;;;22.37;56.97
45937;BME280;31649;46.510;6.498;2022-07-29T03:00:35;97030.00;;;22.41;56.59
45937;BME280;31649;46.510;6.498;2022-07-29T03:03:51;97036.91;;;22.35;56.45
45937;BME280;31649;46.510;6.498;2022-07-29T03:07:05;97039.00;;;22.40;56.33
45937;BME280;31649;46.510;6.498;2022-07-29T03:10:15;97035.72;;;22.38;56.20
45937;BME280;31649;46.510;6.498;2022-07-29T03:13:26;97035.81;;;22.23;56.76
45937;BME280;31649;46.510;6.498;2022-07-29T03:16:39;97029.91;;;22.21;57.00
45937;BME280;31649;46.510;6.498;2022-07-29T03:19:51;97038.47;;;22.23;57.31
45937;BME280;31649;46.510;6.498;2022-07-29T03:22:52;97027.53;;;22.04;57.89
45937;BME280;31649;46.510;6.498;2022-07-29T03:25:51;97020.28;;;22.13;57.73
45937;BME280;31649;46.510;6.498;2022-07-29T03:29:02;97024.75;;;22.12;57.20
45937;BME280;31649;46.510;6.498;2022-07-29T03:32:11;97026.63;;;22.19;57.07
45937;BME280;31649;46.510;6.498;2022-07-29T03:35:20;97019.22;;;22.07;56.61
45937;BME280;31649;46.510;6.498;2022-07-29T03:38:29;97023.34;;;22.17;55.90
45937;BME280;31649;46.510;6.498;2022-07-29T03:41:35;97029.47;;;22.17;55.76
45937;BME280;31649;46.510;6.498;2022-07-29T03:44:38;97030.25;;;22.11;55.70
45937;BME280;31649;46.510;6.498;2022-07-29T03:47:30;97029.69;;;22.15;55.37
45937;BME280;31649;46.510;6.498;2022-07-29T03:50:32;97029.03;;;22.13;55.86
45937;BME280;31649;46.510;6.498;2022-07-29T03:53:42;97033.13;;;21.87;56.14
45937;BME280;31649;46.510;6.498;2022-07-29T03:56:52;97030.34;;;21.96;55.97
45937;BME280;31649;46.510;6.498;2022-07-29T04:00:03;97035.25;;;21.99;55.91
45937;BME280;31649;46.510;6.498;2022-07-29T04:06:20;97054.31;;;21.87;56.22
45937;BME280;31649;46.510;6.498;2022-07-29T04:09:29;97057.69;;;21.81;56.58
45937;BME280;31649;46.510;6.498;2022-07-29T04:12:39;97052.09;;;21.69;57.12
45937;BME280;31649;46.510;6.498;2022-07-29T04:15:50;97047.16;;;21.66;57.63
45937;BME280;31649;46.510;6.498;2022-07-29T04:19:01;97046.59;;;21.71;57.87
45937;BME280;31649;46.510;6.498;2022-07-29T04:22:15;97047.88;;;21.75;58.25
45937;BME280;31649;46.510;6.498;2022-07-29T04:25:27;97049.31;;;21.77;58.21
45937;BME280;31649;46.510;6.498;2022-07-29T04:28:34;97053.34;;;21.73;58.93
45937;BME280;31649;46.510;6.498;2022-07-29T04:31:46;97061.94;;;21.75;59.09
45937;BME280;31649;46.510;6.498;2022-07-29T04:35:07;97053.59;;;21.78;59.50
45937;BME280;31649;46.510;6.498;2022-07-29T04:38:20;97047.09;;;21.81;59.54
45937;BME280;31649;46.510;6.498;2022-07-29T04:41:39;97059.34;;;21.82;60.74
45937;BME280;31649;46.510;6.498;2022-07-29T04:44:59;97063.44;;;21.63;66.81
45937;BME280;31649;46.510;6.498;2022-07-29T04:48:20;97067.09;;;21.40;69.53
45937;BME280;31649;46.510;6.498;2022-07-29T04:51:40;97074.72;;;21.28;68.24
45937;BME280;31649;46.510;6.498;2022-07-29T04:55:06;97084.56;;;21.19;68.80
45937;BME280;31649;46.510;6.498;2022-07-29T04:58:30;97084.66;;;21.26;68.63
45937;BME280;31649;46.510;6.498;2022-07-29T05:01:55;97088.50;;;21.23;69.22
45937;BME280;31649;46.510;6.498;2022-07-29T05:05:24;97090.81;;;21.33;69.41
45937;BME280;31649;46.510;6.498;2022-07-29T05:08:49;97089.94;;;21.26;69.71
45937;BME280;31649;46.510;6.498;2022-07-29T05:12:05;97085.94;;;21.30;69.06
45937;BME280;31649;46.510;6.498;2022-07-29T05:18:38;97099.41;;;21.35;68.64
45937;BME280;31649;46.510;6.498;2022-07-29T05:21:52;97108.91;;;21.29;67.80
45937;BME280;31649;46.510;6.498;2022-07-29T05:25:13;97106.63;;;21.26;68.68
45937;BME280;31649;46.510;6.498;2022-07-29T05:28:21;97110.09;;;21.27;68.73
45937;BME280;31649;46.510;6.498;2022-07-29T05:31:32;97104.56;;;21.21;68.10
45937;BME280;31649;46.510;6.498;2022-07-29T05:34:30;97095.69;;;21.29;67.92
45937;BME280;31649;46.510;6.498;2022-07-29T05:37:43;97106.63;;;21.26;68.73
45937;BME280;31649;46.510;6.498;2022-07-29T05:41:03;97100.78;;;21.31;69.17
45937;BME280;31649;46.510;6.498;2022-07-29T05:44:10;97101.53;;;21.25;68.46
45937;BME280;31649;46.510;6.498;2022-07-29T05:47:16;97105.09;;;21.32;68.07
45937;BME280;31649;46.510;6.498;2022-07-29T05:50:38;97115.47;;;21.33;67.95
45937;BME280;31649;46.510;6.498;2022-07-29T05:54:03;97110.72;;;21.29;67.90
45937;BME280;31649;46.510;6.498;2022-07-29T05:57:40;97115.81;;;21.30;68.06
45937;BME280;31649;46.510;6.498;2022-07-29T06:01:06;97120.69;;;21.11;68.23
45937;BME280;31649;46.510;6.498;2022-07-29T06:04:34;97117.59;;;21.23;67.91
45937;BME280;31649;46.510;6.498;2022-07-29T06:07:59;97114.84;;;21.31;68.01
45937;BME280;31649;46.510;6.498;2022-07-29T06:11:25;97115.38;;;21.42;67.93
45937;BME280;31649;46.510;6.498;2022-07-29T06:14:49;97135.91;;;21.40;67.75
45937;BME280;31649;46.510;6.498;2022-07-29T06:18:11;97133.69;;;21.43;67.84
45937;BME280;31649;46.510;6.498;2022-07-29T06:21:33;97130.09;;;21.51;68.27
45937;BME280;31649;46.510;6.498;2022-07-29T06:24:58;97131.84;;;21.59;66.91
45937;BME280;31649;46.510;6.498;2022-07-29T06:28:25;97133.09;;;21.63;66.86
45937;BME280;31649;46.510;6.498;2022-07-29T06:31:50;97133.44;;;21.75;66.59
45937;BME280;31649;46.510;6.498;2022-07-29T06:35:14;97133.44;;;21.75;65.63
45937;BME280;31649;46.510;6.498;2022-07-29T06:38:44;97135.50;;;21.80;65.28
45937;BME280;31649;46.510;6.498;2022-07-29T06:42:09;97140.97;;;21.78;64.48
45937;BME280;31649;46.510;6.498;2022-07-29T06:45:34;97134.81;;;21.71;64.38
45937;BME280;31649;46.510;6.498;2022-07-29T06:49:00;97138.09;;;21.73;64.24
45937;BME280;31649;46.510;6.498;2022-07-29T06:52:25;97143.63;;;21.78;63.88
45937;BME280;31649;46.510;6.498;2022-07-29T06:56:01;97151.31;;;21.88;63.53
45937;BME280;31649;46.510;6.498;2022-07-29T06:59:27;97144.53;;;22.08;62.75
45937;BME280;31649;46.510;6.498;2022-07-29T07:02:49;97151.78;;;22.21;61.83
45937;BME280;31649;46.510;6.498;2022-07-29T07:06:13;97152.34;;;22.38;60.36
45937;BME280;31649;46.510;6.498;2022-07-29T07:09:39;97152.28;;;22.60;62.24
45937;BME280;31649;46.510;6.498;2022-07-29T07:13:04;97153.59;;;22.42;59.76
45937;BME280;31649;46.510;6.498;2022-07-29T07:16:30;97153.56;;;22.13;60.09
45937;BME280;31649;46.510;6.498;2022-07-29T07:19:55;97154.06;;;22.24;59.34
45937;BME280;31649;46.510;6.498;2022-07-29T07:23:20;97151.81;;;22.49;60.00
45937;BME280;31649;46.510;6.498;2022-07-29T07:26:45;97151.44;;;22.53;57.97
45937;BME280;31649;46.510;6.498;2022-07-29T07:30:08;97150.22;;;22.84;58.62
45937;BME280;31649;46.510;6.498;2022-07-29T07:33:33;97159.38;;;23.17;57.30
45937;BME280;31649;46.510;6.498;2022-07-29T07:36:58;97166.69;;;23.50;55.07
45937;BME280;31649;46.510;6.498;2022-07-29T07:40:25;97170.44;;;23.76;54.27
45937;BME280;31649;46.510;6.498;2022-07-29T07:43:51;97167.63;;;23.98;52.86
45937;BME280;31649;46.510;6.498;2022-07-29T07:47:15;97173.97;;;23.97;50.92
45937;BME280;31649;46.510;6.498;2022-07-29T07:50:51;97165.19;;;24.04;53.24
45937;BME280;31649;46.510;6.498;2022-07-29T07:54:17;97189.31;;;24.16;54.31
45937;BME280;31649;46.510;6.498;2022-07-29T07:57:43;97180.13;;;24.25;52.39
45937;BME280;31649;46.510;6.498;2022-07-29T08:01:11;97183.41;;;24.20;53.00
45937;BME280;31649;46.510;6.498;2022-07-29T08:04:38;97172.78;;;24.34;51.91
45937;BME280;31649;46.510;6.498;2022-07-29T08:08:05;97168.50;;;24.33;51.92
45937;BME280;31649;46.510;6.498;2022-07-29T08:11:35;97169.91;;;24.42;52.27
45937;BME280;31649;46.510;6.498;2022-07-29T08:15:02;97171.56;;;24.37;51.65
45937;BME280;31649;46.510;6.498;2022-07-29T08:18:07;97173.81;;;24.46;52.69
45937;BME280;31649;46.510;6.498;2022-07-29T08:21:35;97174.63;;;24.54;53.28
45937;BME280;31649;46.510;6.498;2022-07-29T08:25:02;97175.63;;;24.46;50.96
45937;BME280;31649;46.510;6.498;2022-07-29T08:28:27;97178.50;;;24.38;52.97
45937;BME280;31649;46.510;6.498;2022-07-29T08:31:54;97185.66;;;24.23;55.89
45937;BME280;31649;46.510;6.498;2022-07-29T08:35:20;97190.16;;;24.23;56.82
45937;BME280;31649;46.510;6.498;2022-07-29T08:38:47;97191.38;;;24.20;57.81
45937;BME280;31649;46.510;6.498;2022-07-29T08:42:13;97195.88;;;24.20;56.69
45937;BME280;31649;46.510;6.498;2022-07-29T08:45:45;97184.03;;;24.43;57.75
45937;BME280;31649;46.510;6.498;2022-07-29T08:49:13;97191.81;;;24.44;56.19
45937;BME280;31649;46.510;6.498;2022-07-29T08:52:41;97182.38;;;24.42;55.38
45937;BME280;31649;46.510;6.498;2022-07-29T08:56:11;97186.28;;;24.53;56.02
45937;BME280;31649;46.510;6.498;2022-07-29T08:59:42;97182.59;;;24.61;55.84
45937;BME280;31649;46.510;6.498;2022-07-29T09:03:17;97182.41;;;24.55;54.30
45937;BME280;31649;46.510;6.498;2022-07-29T09:06:50;97185.63;;;24.78;56.08
45937;BME280;31649;46.510;6.498;2022-07-29T09:10:18;97193.41;;;24.79;53.72
45937;BME280;31649;46.510;6.498;2022-07-29T09:13:43;97194.88;;;24.68;55.50
45937;BME280;31649;46.510;6.498;2022-07-29T09:17:15;97202.63;;;24.56;53.90
45937;BME280;31649;46.510;6.498;2022-07-29T09:20:44;97195.69;;;24.35;55.07
45937;BME280;31649;46.510;6.498;2022-07-29T09:24:26;97187.94;;;24.47;55.41
45937;BME280;31649;46.510;6.498;2022-07-29T09:27:53;97192.22;;;24.55;54.70
45937;BME280;31649;46.510;6.498;2022-07-29T09:38:41;97202.63;;;24.97;53.61
45937;BME280;31649;46.510;6.498;2022-07-29T09:42:15;97205.69;;;24.80;52.55
45937;BME280;31649;46.510;6.498;2022-07-29T09:46:09;97198.53;;;24.81;53.47
45937;BME280;31649;46.510;6.498;2022-07-29T09:50:04;97202.84;;;24.55;52.30
45937;BME280;31649;46.510;6.498;2022-07-29T09:54:05;97197.13;;;24.72;53.08
45937;BME280;31649;46.510;6.498;2022-07-29T09:56:58;97205.50;;;24.82;50.90
45937;BME280;31649;46.510;6.498;2022-07-29T10:00:29;97203.84;;;25.01;51.81
45937;BME280;31649;46.510;6.498;2022-07-29T10:04:02;97204.84;;;25.07;49.51
45937;BME280;31649;46.510;6.498;2022-07-29T10:07:29;97203.19;;;25.26;51.70
45937;BME280;31649;46.510;6.498;2022-07-29T10:14:40;97203.06;;;25.54;51.70
45937;BME280;31649;46.510;6.498;2022-07-29T10:18:03;97201.97;;;25.22;50.80
45937;BME280;31649;46.510;6.498;2022-07-29T10:21:30;97199.88;;;25.31;52.67
45937;BME280;31649;46.510;6.498;2022-07-29T10:24:55;97196.25;;;25.19;50.11
45937;BME280;31649;46.510;6.498;2022-07-29T10:28:19;97195.59;;;25.23;51.63
45937;BME280;31649;46.510;6.498;2022-07-29T10:42:22;97213.66;;;25.14;53.87
45937;BME280;31649;46.510;6.498;2022-07-29T10:45:42;97217.34;;;24.93;55.54
45937;BME280;31649;46.510;6.498;2022-07-29T10:55:46;97243.13;;;24.25;54.66
45937;BME280;31649;46.510;6.498;2022-07-29T11:06:11;97295.75;;;23.87;56.74
45937;BME280;31649;46.510;6.498;2022-07-29T11:09:43;97339.34;;;23.06;60.94
45937;BME280;31649;46.510;6.498;2022-07-29T11:13:09;97323.91;;;22.29;70.45
45937;BME280;31649;46.510;6.498;2022-07-29T11:21:00;97352.84;;;21.94;72.41
45937;BME280;31649;46.510;6.498;2022-07-29T11:23:48;97360.59;;;21.50;69.58
45937;BME280;31649;46.510;6.498;2022-07-29T11:27:30;97358.91;;;21.18;70.57
45937;BME280;31649;46.510;6.498;2022-07-29T11:31:03;97357.63;;;21.14;70.97
45937;BME280;31649;46.510;6.498;2022-07-29T11:34:36;97361.53;;;20.95;70.40
45937;BME280;31649;46.510;6.498;2022-07-29T11:45:07;97361.84;;;21.39;73.98
45937;BME280;31649;46.510;6.498;2022-07-29T11:48:43;97362.88;;;21.53;73.54
45937;BME280;31649;46.510;6.498;2022-07-29T11:52:10;97367.59;;;21.27;71.71
45937;BME280;31649;46.510;6.498;2022-07-29T11:55:33;97363.03;;;21.51;73.79
45937;BME280;31649;46.510;6.498;2022-07-29T12:02:38;97365.06;;;21.64;72.83
45937;BME280;31649;46.510;6.498;2022-07-29T12:06:01;97367.78;;;21.41;70.74
45937;BME280;31649;46.510;6.498;2022-07-29T12:09:25;97374.00;;;21.48;70.87
45937;BME280;31649;46.510;6.498;2022-07-29T12:12:50;97373.72;;;21.43;72.10
45937;BME280;31649;46.510;6.498;2022-07-29T12:16:16;97377.38;;;21.42;72.39
45937;BME280;31649;46.510;6.498;2022-07-29T12:19:42;97379.91;;;21.35;72.32
45937;BME280;31649;46.510;6.498;2022-07-29T12:23:07;97381.50;;;21.06;69.73
45937;BME280;31649;46.510;6.498;2022-07-29T12:26:32;97381.06;;;21.17;72.06
45937;BME280;31649;46.510;6.498;2022-07-29T12:29:56;97377.22;;;21.05;72.14
45937;BME280;31649;46.510;6.498;2022-07-29T12:36:51;97379.47;;;20.84;70.54
45937;BME280;31649;46.510;6.498;2022-07-29T12:40:15;97378.06;;;20.73;71.36
45937;BME280;31649;46.510;6.498;2022-07-29T12:47:20;97372.94;;;20.95;71.88
45937;BME280;31649;46.510;6.498;2022-07-29T12:51:09;97385.59;;;21.08;69.90
45937;BME280;31649;46.510;6.498;2022-07-29T13:01:28;97391.81;;;21.16;69.93
45937;BME280;31649;46.510;6.498;2022-07-29T13:04:56;97389.09;;;21.09;70.26
45937;BME280;31649;46.510;6.498;2022-07-29T13:08:30;97399.94;;;21.14;71.58
45937;BME280;31649;46.510;6.498;2022-07-29T13:12:01;97389.31;;;21.38;73.95
45937;BME280;31649;46.510;6.498;2022-07-29T13:15:33;97397.09;;;21.39;73.97
45937;BME280;31649;46.510;6.498;2022-07-29T13:19:03;97399.22;;;21.20;71.94
45937;BME280;31649;46.510;6.498;2022-07-29T13:22:33;97411.84;;;21.33;70.64
45937;BME280;31649;46.510;6.498;2022-07-29T13:29:37;97407.94;;;21.29;69.11
45937;BME280;31649;46.510;6.498;2022-07-29T13:33:04;97404.34;;;21.61;70.46
45937;BME280;31649;46.510;6.498;2022-07-29T13:36:30;97405.72;;;21.72;69.69
45937;BME280;31649;46.510;6.498;2022-07-29T13:39:57;97408.00;;;21.75;67.35
45937;BME280;31649;46.510;6.498;2022-07-29T13:43:24;97395.28;;;21.70;68.21
45937;BME280;31649;46.510;6.498;2022-07-29T13:46:52;97390.47;;;21.89;66.78
45937;BME280;31649;46.510;6.498;2022-07-29T13:50:22;97396.91;;;22.47;66.13
45937;BME280;31649;46.510;6.498;2022-07-29T13:53:47;97396.00;;;23.21;62.06
45937;BME280;31649;46.510;6.498;2022-07-29T13:57:16;97400.59;;;25.10;59.37
45937;BME280;31649;46.510;6.498;2022-07-29T14:00:43;97378.66;;;25.76;55.08
45937;BME280;31649;46.510;6.498;2022-07-29T14:04:10;97379.28;;;25.71;54.27
45937;BME280;31649;46.510;6.498;2022-07-29T14:07:39;97378.56;;;26.03;52.65
45937;BME280;31649;46.510;6.498;2022-07-29T14:11:05;97378.38;;;26.04;52.56
45937;BME280;31649;46.510;6.498;2022-07-29T14:14:30;97371.69;;;25.81;55.71
45937;BME280;31649;46.510;6.498;2022-07-29T14:17:56;97375.00;;;26.69;50.35
45937;BME280;31649;46.510;6.498;2022-07-29T14:21:25;97373.69;;;25.86;51.74
45937;BME280;31649;46.510;6.498;2022-07-29T14:25:21;97367.84;;;25.23;53.67
45937;BME280;31649;46.510;6.498;2022-07-29T14:28:48;97357.16;;;24.82;55.36
45937;BME280;31649;46.510;6.498;2022-07-29T14:32:16;97365.88;;;24.49;57.49
45937;BME280;31649;46.510;6.498;2022-07-29T14:35:44;97358.38;;;24.10;58.73
45937;BME280;31649;46.510;6.498;2022-07-29T14:39:12;97363.13;;;23.72;57.95
45937;BME280;31649;46.510;6.498;2022-07-29T14:42:41;97369.63;;;23.70;59.58
45937;BME280;31649;46.510;6.498;2022-07-29T14:46:10;97366.06;;;23.91;59.14
45937;BME280;31649;46.510;6.498;2022-07-29T14:49:36;97366.28;;;23.96;60.60
45937;BME280;31649;46.510;6.498;2022-07-29T14:53:04;97365.84;;;24.28;60.08
45937;BME280;31649;46.510;6.498;2022-07-29T14:56:30;97362.22;;;24.50;57.95
45937;BME280;31649;46.510;6.498;2022-07-29T15:00:04;97354.00;;;24.44;57.15
45937;BME280;31649;46.510;6.498;2022-07-29T15:03:33;97352.97;;;24.32;57.42
45937;BME280;31649;46.510;6.498;2022-07-29T15:07:01;97353.78;;;24.32;58.18
45937;BME280;31649;46.510;6.498;2022-07-29T15:10:22;97353.06;;;24.17;59.83
45937;BME280;31649;46.510;6.498;2022-07-29T15:13:49;97350.34;;;23.96;60.87
45937;BME280;31649;46.510;6.498;2022-07-29T15:17:19;97342.28;;;24.25;60.57
45937;BME280;31649;46.510;6.498;2022-07-29T15:20:48;97337.31;;;25.39;56.89
45937;BME280;31649;46.510;6.498;2022-07-29T15:24:17;97346.53;;;25.02;57.97
45937;BME280;31649;46.510;6.498;2022-07-29T15:27:47;97331.41;;;26.03;55.55
45937;BME280;31649;46.510;6.498;2022-07-29T15:31:17;97336.47;;;26.18;53.39
45937;BME280;31649;46.510;6.498;2022-07-29T15:34:45;97337.31;;;25.32;55.53
45937;BME280;31649;46.510;6.498;2022-07-29T15:38:13;97335.25;;;24.66;57.84
45937;BME280;31649;46.510;6.498;2022-07-29T15:41:41;97336.13;;;24.18;59.36
45937;BME280;31649;46.510;6.498;2022-07-29T15:45:08;97340.03;;;23.80;60.49
45937;BME280;31649;46.510;6.498;2022-07-29T15:48:37;97330.31;;;23.58;61.94
45937;BME280;31649;46.510;6.498;2022-07-29T15:52:13;97325.25;;;23.63;61.87
45937;BME280;31649;46.510;6.498;2022-07-29T15:55:43;97330.56;;;23.63;60.55
45937;BME280;31649;46.510;6.498;2022-07-29T15:59:12;97333.59;;;23.53;62.62
45937;BME280;31649;46.510;6.498;2022-07-29T16:02:39;97330.72;;;23.26;63.29
45937;BME280;31649;46.510;6.498;2022-07-29T16:06:05;97334.03;;;23.35;62.85
45937;BME280;31649;46.510;6.498;2022-07-29T16:09:34;97332.34;;;23.27;63.26
45937;BME280;31649;46.510;6.498;2022-07-29T16:13:02;97329.84;;;23.19;64.50
45937;BME280;31649;46.510;6.498;2022-07-29T16:16:30;97327.03;;;22.99;64.35
45937;BME280;31649;46.510;6.498;2022-07-29T16:20:00;97330.88;;;23.18;63.56
45937;BME280;31649;46.510;6.498;2022-07-29T16:23:28;97328.78;;;23.13;63.96
45937;BME280;31649;46.510;6.498;2022-07-29T16:26:58;97328.00;;;22.91;63.92
45937;BME280;31649;46.510;6.498;2022-07-29T16:30:28;97335.88;;;23.06;63.22
45937;BME280;31649;46.510;6.498;2022-07-29T16:33:59;97334.59;;;23.02;63.61
45937;BME280;31649;46.510;6.498;2022-07-29T16:37:27;97335.34;;;23.17;62.79
45937;BME280;31649;46.510;6.498;2022-07-29T16:40:56;97339.31;;;23.28;62.32
45937;BME280;31649;46.510;6.498;2022-07-29T16:44:26;97332.75;;;23.53;61.24
45937;BME280;31649;46.510;6.498;2022-07-29T16:47:56;97331.31;;;24.49;58.92
45937;BME280;31649;46.510;6.498;2022-07-29T16:51:27;97332.78;;;24.65;58.01
45937;BME280;31649;46.510;6.498;2022-07-29T16:54:56;97332.47;;;24.26;58.79
45937;BME280;31649;46.510;6.498;2022-07-29T16:58:25;97339.38;;;23.71;59.92
45937;BME280;31649;46.510;6.498;2022-07-29T17:01:54;97324.69;;;23.68;59.88
45937;BME280;31649;46.510;6.498;2022-07-29T17:05:26;97330.88;;;23.47;60.81
45937;BME280;31649;46.510;6.498;2022-07-29T17:08:55;97331.34;;;23.28;61.79
45937;BME280;31649;46.510;6.498;2022-07-29T17:12:25;97324.31;;;23.14;63.05
45937;BME280;31649;46.510;6.498;2022-07-29T17:16:06;97332.97;;;23.29;61.42
45937;BME280;31649;46.510;6.498;2022-07-29T17:19:34;97336.03;;;23.26;62.29
45937;BME280;31649;46.510;6.498;2022-07-29T17:23:04;97335.69;;;23.07;63.26
45937;BME280;31649;46.510;6.498;2022-07-29T17:26:33;97335.75;;;23.43;62.76
45937;BME280;31649;46.510;6.498;2022-07-29T17:30:02;97337.28;;;23.59;61.18
45937;BME280;31649;46.510;6.498;2022-07-29T17:33:34;97342.75;;;23.22;62.93
45937;BME280;31649;46.510;6.498;2022-07-29T17:37:05;97343.75;;;23.21;62.82
45937;BME280;31649;46.510;6.498;2022-07-29T17:40:32;97343.94;;;23.19;63.09
45937;BME280;31649;46.510;6.498;2022-07-29T17:44:00;97347.25;;;23.00;63.58
45937;BME280;31649;46.510;6.498;2022-07-29T17:47:28;97337.84;;;22.97;63.85
45937;BME280;31649;46.510;6.498;2022-07-29T17:50:55;97345.28;;;23.08;63.92
45937;BME280;31649;46.510;6.498;2022-07-29T17:54:22;97350.53;;;23.02;62.49
45937;BME280;31649;46.510;6.498;2022-07-29T17:57:51;97349.13;;;23.06;62.21
45937;BME280;31649;46.510;6.498;2022-07-29T18:01:20;97347.84;;;23.24;61.85
45937;BME280;31649;46.510;6.498;2022-07-29T18:04:51;97345.84;;;23.26;61.20
45937;BME280;31649;46.510;6.498;2022-07-29T18:08:20;97354.13;;;23.16;62.12
45937;BME280;31649;46.510;6.498;2022-07-29T18:11:46;97350.59;;;23.08;61.62
45937;BME280;31649;46.510;6.498;2022-07-29T18:14:54;97347.31;;;23.06;62.04
45937;BME280;31649;46.510;6.498;2022-07-29T18:18:13;97354.00;;;23.02;61.52
45937;BME280;31649;46.510;6.498;2022-07-29T18:21:44;97355.53;;;23.12;61.52
45937;BME280;31649;46.510;6.498;2022-07-29T18:25:15;97360.63;;;23.13;62.49
45937;BME280;31649;46.510;6.498;2022-07-29T18:28:43;97360.00;;;23.11;62.35
45937;BME280;31649;46.510;6.498;2022-07-29T18:32:14;97356.16;;;23.14;61.68
45937;BME280;31649;46.510;6.498;2022-07-29T18:35:45;97357.28;;;23.04;61.51
45937;BME280;31649;46.510;6.498;2022-07-29T18:39:12;97359.56;;;23.07;62.94
45937;BME280;31649;46.510;6.498;2022-07-29T18:42:43;97366.09;;;23.05;61.99
45937;BME280;31649;46.510;6.498;2022-07-29T18:46:11;97364.19;;;22.99;62.39
45937;BME280;31649;46.510;6.498;2022-07-29T18:49:40;97360.22;;;22.88;62.00
45937;BME280;31649;46.510;6.498;2022-07-29T18:53:07;97363.13;;;22.71;62.42
45937;BME280;31649;46.510;6.498;2022-07-29T18:56:32;97363.22;;;22.63;62.80
45937;BME280;31649;46.510;6.498;2022-07-29T19:00:02;97364.50;;;22.67;63.64
45937;BME280;31649;46.510;6.498;2022-07-29T19:03:30;97362.38;;;22.62;63.52
45937;BME280;31649;46.510;6.498;2022-07-29T19:06:58;97365.88;;;22.63;63.49
45937;BME280;31649;46.510;6.498;2022-07-29T19:10:29;97377.84;;;22.58;63.16
45937;BME280;31649;46.510;6.498;2022-07-29T19:13:58;97382.97;;;22.60;63.32
45937;BME280;31649;46.510;6.498;2022-07-29T19:17:28;97389.09;;;22.60;62.71
45937;BME280;31649;46.510;6.498;2022-07-29T19:20:56;97395.53;;;22.51;61.97
45937;BME280;31649;46.510;6.498;2022-07-29T19:24:26;97396.16;;;22.53;62.81
45937;BME280;31649;46.510;6.498;2022-07-29T19:27:57;97400.44;;;22.54;62.00
45937;BME280;31649;46.510;6.498;2022-07-29T19:31:31;97401.75;;;22.43;63.39